sensor_id;sensor_type;location;lat;lon;timestamp;P1;durP1;ratioP1;P2;durP2;ratioP2
13090;SDS011;6611;52.604;13.438;2022-10-18T00:02:14;7.00;;;5.30;;
13090;SDS011;6611;52.604;13.438;2022-10-18T00:07:17;6.93;;;5.53;;
13090;SDS011;6611;52.604;13.438;2022-10-18T00:12:18;7.33;;;5.33;;
13090;SDS011;6611;52.604;13.438;2022-10-18T00:17:20;6.20;;;5.03;;
13090;SDS011;6611;52.604;13.438;2022-10-18T00:22:22;7.60;;;4.83;;
13090;SDS011;6611;52.604;13.438;2022-10-18T00:27:24;8.50;;;6.03;;
13090;SDS011;6611;52.604;13.438;2022-10-18T00:32:25;6.47;;;5.53;;
13090;SDS011;6611;52.604;13.438;2022-10-18T00:37:29;6.40;;;5.27;;
13090;SDS011;6611;52.604;13.438;2022-10-18T00:42:32;6.80;;;5.40;;
13090;SDS011;6611;52.604;13.438;2022-10-18T00:47:34;6.13;;;5.43;;
13090;SDS011;6611;52.604;13.438;2022-10-18T00:52:39;8.83;;;5.33;;
13090;SDS011;6611;52.604;13.438;2022-10-18T00:57:43;6.20;;;5.57;;
13090;SDS011;6611;52.604;13.438;2022-10-18T01:02:46;6.10;;;4.97;;
13090;SDS011;6611;52.604;13.438;2022-10-18T01:07:54;6.50;;;5.50;;
13090;SDS011;6611;52.604;13.438;2022-10-18T01:13:10;5.93;;;5.33;;
13090;SDS011;6611;52.604;13.438;2022-10-18T01:18:24;7.67;;;6.13;;
13090;SDS011;6611;52.604;13.438;2022-10-18T01:23:35;8.13;;;5.47;;
13090;SDS011;6611;52.604;13.438;2022-10-18T01:28:58;7.10;;;5.43;;
13090;SDS011;6611;52.604;13.438;2022-10-18T01:34:09;6.63;;;5.33;;
13090;SDS011;6611;52.604;13.438;2022-10-18T01:39:16;6.03;;;5.30;;
13090;SDS011;6611;52.604;13.438;2022-10-18T01:44:22;7.90;;;6.03;;
13090;SDS011;6611;52.604;13.438;2022-10-18T01:49:27;6.83;;;5.80;;
13090;SDS011;6611;52.604;13.438;2022-10-18T01:54:29;6.80;;;6.10;;
13090;SDS011;6611;52.604;13.438;2022-10-18T01:59:39;7.00;;;6.30;;
13090;SDS011;6611;52.604;13.438;2022-10-18T02:04:50;9.70;;;6.03;;
13090;SDS011;6611;52.604;13.438;2022-10-18T02:10:00;8.03;;;6.13;;
13090;SDS011;6611;52.604;13.438;2022-10-18T02:15:07;7.93;;;5.80;;
13090;SDS011;6611;52.604;13.438;2022-10-18T02:20:13;8.67;;;6.40;;
13090;SDS011;6611;52.604;13.438;2022-10-18T02:25:19;8.33;;;7.10;;
13090;SDS011;6611;52.604;13.438;2022-10-18T02:30:23;8.27;;;7.03;;
13090;SDS011;6611;52.604;13.438;2022-10-18T02:35:32;10.20;;;7.60;;
13090;SDS011;6611;52.604;13.438;2022-10-18T02:40:38;8.80;;;7.33;;
13090;SDS011;6611;52.604;13.438;2022-10-18T02:45:40;10.77;;;8.43;;
13090;SDS011;6611;52.604;13.438;2022-10-18T02:50:43;10.40;;;8.73;;
13090;SDS011;6611;52.604;13.438;2022-10-18T02:55:44;10.93;;;8.50;;
13090;SDS011;6611;52.604;13.438;2022-10-18T03:00:48;9.17;;;8.07;;
13090;SDS011;6611;52.604;13.438;2022-10-18T03:05:51;10.80;;;8.03;;
13090;SDS011;6611;52.604;13.438;2022-10-18T03:10:52;11.10;;;8.23;;
13090;SDS011;6611;52.604;13.438;2022-10-18T03:15:54;11.47;;;8.33;;
13090;SDS011;6611;52.604;13.438;2022-10-18T03:20:57;10.67;;;8.60;;
13090;SDS011;6611;52.604;13.438;2022-10-18T03:25:58;11.30;;;8.43;;
13090;SDS011;6611;52.604;13.438;2022-10-18T03:31:00;9.40;;;7.80;;
13090;SDS011;6611;52.604;13.438;2022-10-18T03:36:04;12.40;;;8.80;;
13090;SDS011;6611;52.604;13.438;2022-10-18T03:41:06;10.90;;;8.50;;
13090;SDS011;6611;52.604;13.438;2022-10-18T03:46:07;10.43;;;7.80;;
13090;SDS011;6611;52.604;13.438;2022-10-18T03:51:10;9.00;;;7.57;;
13090;SDS011;6611;52.604;13.438;2022-10-18T03:56:12;11.40;;;8.40;;
13090;SDS011;6611;52.604;13.438;2022-10-18T04:01:14;10.50;;;8.77;;
13090;SDS011;6611;52.604;13.438;2022-10-18T04:06:16;9.60;;;7.83;;
13090;SDS011;6611;52.604;13.438;2022-10-18T04:11:18;9.97;;;8.07;;
13090;SDS011;6611;52.604;13.438;2022-10-18T04:16:19;10.40;;;7.87;;
13090;SDS011;6611;52.604;13.438;2022-10-18T04:21:22;10.07;;;7.70;;
13090;SDS011;6611;52.604;13.438;2022-10-18T04:26:24;10.50;;;7.53;;
13090;SDS011;6611;52.604;13.438;2022-10-18T04:31:25;8.90;;;7.27;;
13090;SDS011;6611;52.604;13.438;2022-10-18T04:36:28;10.47;;;7.60;;
13090;SDS011;6611;52.604;13.438;2022-10-18T04:41:30;8.43;;;6.77;;
13090;SDS011;6611;52.604;13.438;2022-10-18T04:46:31;6.70;;;6.00;;
13090;SDS011;6611;52.604;13.438;2022-10-18T04:51:34;8.17;;;6.97;;
13090;SDS011;6611;52.604;13.438;2022-10-18T04:56:36;7.87;;;6.70;;
13090;SDS011;6611;52.604;13.438;2022-10-18T05:01:38;8.77;;;7.30;;
13090;SDS011;6611;52.604;13.438;2022-10-18T05:06:40;9.27;;;6.93;;
13090;SDS011;6611;52.604;13.438;2022-10-18T05:11:42;8.77;;;7.30;;
13090;SDS011;6611;52.604;13.438;2022-10-18T05:16:43;8.80;;;6.97;;
13090;SDS011;6611;52.604;13.438;2022-10-18T05:21:46;10.70;;;6.87;;
13090;SDS011;6611;52.604;13.438;2022-10-18T05:26:48;9.50;;;7.03;;
13090;SDS011;6611;52.604;13.438;2022-10-18T05:31:49;9.80;;;7.23;;
13090;SDS011;6611;52.604;13.438;2022-10-18T05:36:52;9.20;;;7.07;;
13090;SDS011;6611;52.604;13.438;2022-10-18T05:41:54;8.87;;;7.13;;
13090;SDS011;6611;52.604;13.438;2022-10-18T05:46:55;8.40;;;6.93;;
13090;SDS011;6611;52.604;13.438;2022-10-18T05:51:58;7.90;;;6.53;;
13090;SDS011;6611;52.604;13.438;2022-10-18T05:57:00;8.37;;;6.67;;
13090;SDS011;6611;52.604;13.438;2022-10-18T06:02:01;9.83;;;7.50;;
13090;SDS011;6611;52.604;13.438;2022-10-18T06:07:06;9.47;;;7.53;;
13090;SDS011;6611;52.604;13.438;2022-10-18T06:12:08;11.77;;;8.37;;
13090;SDS011;6611;52.604;13.438;2022-10-18T06:17:09;9.17;;;7.27;;
13090;SDS011;6611;52.604;13.438;2022-10-18T06:22:12;10.03;;;7.60;;
13090;SDS011;6611;52.604;13.438;2022-10-18T06:27:14;12.33;;;7.83;;
13090;SDS011;6611;52.604;13.438;2022-10-18T06:32:15;8.87;;;7.00;;
13090;SDS011;6611;52.604;13.438;2022-10-18T06:37:19;9.10;;;7.57;;
13090;SDS011;6611;52.604;13.438;2022-10-18T06:42:20;11.13;;;7.33;;
13090;SDS011;6611;52.604;13.438;2022-10-18T06:47:22;10.07;;;7.27;;
13090;SDS011;6611;52.604;13.438;2022-10-18T06:52:25;9.43;;;6.60;;
13090;SDS011;6611;52.604;13.438;2022-10-18T06:57:26;9.03;;;7.23;;
13090;SDS011;6611;52.604;13.438;2022-10-18T07:02:28;7.63;;;6.30;;
13090;SDS011;6611;52.604;13.438;2022-10-18T07:07:31;10.00;;;7.63;;
13090;SDS011;6611;52.604;13.438;2022-10-18T07:12:32;10.00;;;7.87;;
13090;SDS011;6611;52.604;13.438;2022-10-18T07:17:34;9.10;;;7.13;;
13090;SDS011;6611;52.604;13.438;2022-10-18T07:22:37;9.97;;;7.60;;
13090;SDS011;6611;52.604;13.438;2022-10-18T07:27:39;10.20;;;8.07;;
13090;SDS011;6611;52.604;13.438;2022-10-18T07:32:42;9.27;;;7.10;;
13090;SDS011;6611;52.604;13.438;2022-10-18T07:37:45;10.27;;;7.73;;
13090;SDS011;6611;52.604;13.438;2022-10-18T07:42:46;11.07;;;7.57;;
13090;SDS011;6611;52.604;13.438;2022-10-18T07:47:52;9.67;;;7.17;;
13090;SDS011;6611;52.604;13.438;2022-10-18T07:52:55;7.70;;;6.90;;
13090;SDS011;6611;52.604;13.438;2022-10-18T07:57:58;10.33;;;7.17;;
13090;SDS011;6611;52.604;13.438;2022-10-18T08:16:13;7.00;;;5.80;;
13090;SDS011;6611;52.604;13.438;2022-10-18T08:21:17;8.67;;;6.37;;
13090;SDS011;6611;52.604;13.438;2022-10-18T08:26:20;7.63;;;6.33;;
13090;SDS011;6611;52.604;13.438;2022-10-18T08:31:24;6.90;;;5.73;;
13090;SDS011;6611;52.604;13.438;2022-10-18T08:36:25;6.37;;;5.13;;
13090;SDS011;6611;52.604;13.438;2022-10-18T08:41:31;5.87;;;5.10;;
13090;SDS011;6611;52.604;13.438;2022-10-18T08:46:44;8.37;;;6.33;;
13090;SDS011;6611;52.604;13.438;2022-10-18T08:51:48;7.47;;;5.40;;
13090;SDS011;6611;52.604;13.438;2022-10-18T08:56:55;5.87;;;5.17;;
13090;SDS011;6611;52.604;13.438;2022-10-18T09:02:03;7.93;;;5.73;;
13090;SDS011;6611;52.604;13.438;2022-10-18T09:07:25;8.10;;;5.67;;
13090;SDS011;6611;52.604;13.438;2022-10-18T09:12:52;8.00;;;6.13;;
13090;SDS011;6611;52.604;13.438;2022-10-18T09:18:15;7.60;;;5.73;;
13090;SDS011;6611;52.604;13.438;2022-10-18T09:23:29;7.47;;;5.33;;
13090;SDS011;6611;52.604;13.438;2022-10-18T09:28:40;7.87;;;5.30;;
13090;SDS011;6611;52.604;13.438;2022-10-18T09:33:54;7.60;;;5.73;;
13090;SDS011;6611;52.604;13.438;2022-10-18T09:39:01;6.97;;;5.53;;
13090;SDS011;6611;52.604;13.438;2022-10-18T09:44:09;9.23;;;6.40;;
13090;SDS011;6611;52.604;13.438;2022-10-18T09:49:17;7.33;;;6.40;;
13090;SDS011;6611;52.604;13.438;2022-10-18T09:54:23;9.30;;;6.27;;
13090;SDS011;6611;52.604;13.438;2022-10-18T09:59:34;9.23;;;6.70;;
13090;SDS011;6611;52.604;13.438;2022-10-18T10:04:39;9.47;;;6.90;;
13090;SDS011;6611;52.604;13.438;2022-10-18T10:09:43;7.60;;;5.60;;
13090;SDS011;6611;52.604;13.438;2022-10-18T10:14:46;7.30;;;5.80;;
13090;SDS011;6611;52.604;13.438;2022-10-18T10:19:55;8.13;;;6.13;;
13090;SDS011;6611;52.604;13.438;2022-10-18T10:24:59;7.40;;;6.20;;
13090;SDS011;6611;52.604;13.438;2022-10-18T10:30:00;7.00;;;5.93;;
13090;SDS011;6611;52.604;13.438;2022-10-18T10:35:09;8.17;;;5.67;;
13090;SDS011;6611;52.604;13.438;2022-10-18T10:40:22;7.73;;;6.30;;
13090;SDS011;6611;52.604;13.438;2022-10-18T10:45:25;7.93;;;6.37;;
13090;SDS011;6611;52.604;13.438;2022-10-18T10:50:30;10.27;;;6.90;;
13090;SDS011;6611;52.604;13.438;2022-10-18T10:55:32;8.40;;;6.10;;
13090;SDS011;6611;52.604;13.438;2022-10-18T11:00:37;8.03;;;5.73;;
13090;SDS011;6611;52.604;13.438;2022-10-18T11:05:43;8.60;;;5.50;;
13090;SDS011;6611;52.604;13.438;2022-10-18T11:10:53;6.60;;;5.90;;
13090;SDS011;6611;52.604;13.438;2022-10-18T11:16:03;7.20;;;5.43;;
13090;SDS011;6611;52.604;13.438;2022-10-18T11:21:12;7.03;;;5.07;;
13090;SDS011;6611;52.604;13.438;2022-10-18T11:26:23;5.20;;;4.70;;
13090;SDS011;6611;52.604;13.438;2022-10-18T11:31:34;7.43;;;5.30;;
13090;SDS011;6611;52.604;13.438;2022-10-18T11:36:48;7.20;;;5.77;;
13090;SDS011;6611;52.604;13.438;2022-10-18T11:41:56;7.77;;;5.73;;
13090;SDS011;6611;52.604;13.438;2022-10-18T11:47:03;6.83;;;5.90;;
13090;SDS011;6611;52.604;13.438;2022-10-18T11:52:14;6.40;;;5.37;;
13090;SDS011;6611;52.604;13.438;2022-10-18T11:57:30;6.63;;;5.43;;
13090;SDS011;6611;52.604;13.438;2022-10-18T12:08:10;7.57;;;6.40;;
13090;SDS011;6611;52.604;13.438;2022-10-18T12:13:16;7.30;;;5.83;;
13090;SDS011;6611;52.604;13.438;2022-10-18T12:18:22;8.37;;;6.20;;
13090;SDS011;6611;52.604;13.438;2022-10-18T12:23:32;6.13;;;5.53;;
13090;SDS011;6611;52.604;13.438;2022-10-18T12:28:41;7.17;;;5.87;;
13090;SDS011;6611;52.604;13.438;2022-10-18T12:33:52;6.53;;;5.70;;
13090;SDS011;6611;52.604;13.438;2022-10-18T12:38:58;6.50;;;5.77;;
13090;SDS011;6611;52.604;13.438;2022-10-18T12:44:02;6.83;;;5.57;;
13090;SDS011;6611;52.604;13.438;2022-10-18T12:49:08;9.07;;;5.63;;
13090;SDS011;6611;52.604;13.438;2022-10-18T12:54:15;8.27;;;5.80;;
13090;SDS011;6611;52.604;13.438;2022-10-18T13:04:41;8.13;;;6.10;;
13090;SDS011;6611;52.604;13.438;2022-10-18T13:10:31;7.50;;;6.03;;
13090;SDS011;6611;52.604;13.438;2022-10-18T13:15:39;8.70;;;6.90;;
13090;SDS011;6611;52.604;13.438;2022-10-18T13:20:45;8.20;;;6.60;;
13090;SDS011;6611;52.604;13.438;2022-10-18T13:26:00;8.90;;;5.90;;
13090;SDS011;6611;52.604;13.438;2022-10-18T13:31:17;7.67;;;6.33;;
13090;SDS011;6611;52.604;13.438;2022-10-18T13:36:22;7.53;;;6.63;;
13090;SDS011;6611;52.604;13.438;2022-10-18T13:41:27;7.63;;;6.17;;
13090;SDS011;6611;52.604;13.438;2022-10-18T13:52:13;8.43;;;6.30;;
13090;SDS011;6611;52.604;13.438;2022-10-18T13:57:29;6.77;;;6.00;;
13090;SDS011;6611;52.604;13.438;2022-10-18T14:02:49;8.33;;;6.50;;
13090;SDS011;6611;52.604;13.438;2022-10-18T14:08:04;7.90;;;6.90;;
13090;SDS011;6611;52.604;13.438;2022-10-18T14:13:16;7.80;;;6.33;;
13090;SDS011;6611;52.604;13.438;2022-10-18T14:18:22;10.23;;;7.03;;
13090;SDS011;6611;52.604;13.438;2022-10-18T14:23:28;9.63;;;7.40;;
13090;SDS011;6611;52.604;13.438;2022-10-18T14:28:34;9.00;;;7.63;;
13090;SDS011;6611;52.604;13.438;2022-10-18T14:33:36;8.67;;;7.40;;
13090;SDS011;6611;52.604;13.438;2022-10-18T14:38:43;8.60;;;6.83;;
13090;SDS011;6611;52.604;13.438;2022-10-18T14:43:49;9.10;;;6.77;;
13090;SDS011;6611;52.604;13.438;2022-10-18T14:48:52;9.03;;;7.10;;
13090;SDS011;6611;52.604;13.438;2022-10-18T14:53:55;10.07;;;7.97;;
13090;SDS011;6611;52.604;13.438;2022-10-18T14:59:00;8.87;;;6.93;;
13090;SDS011;6611;52.604;13.438;2022-10-18T15:04:05;9.10;;;8.03;;
13090;SDS011;6611;52.604;13.438;2022-10-18T15:09:10;9.50;;;7.50;;
13090;SDS011;6611;52.604;13.438;2022-10-18T15:14:15;8.87;;;7.50;;
13090;SDS011;6611;52.604;13.438;2022-10-18T15:19:26;8.27;;;7.13;;
13090;SDS011;6611;52.604;13.438;2022-10-18T15:24:31;8.87;;;7.20;;
13090;SDS011;6611;52.604;13.438;2022-10-18T15:29:35;10.13;;;7.27;;
13090;SDS011;6611;52.604;13.438;2022-10-18T15:34:37;10.43;;;7.60;;
13090;SDS011;6611;52.604;13.438;2022-10-18T15:39:39;9.20;;;7.10;;
13090;SDS011;6611;52.604;13.438;2022-10-18T15:44:47;9.47;;;7.50;;
13090;SDS011;6611;52.604;13.438;2022-10-18T15:49:51;11.40;;;7.43;;
13090;SDS011;6611;52.604;13.438;2022-10-18T15:54:55;8.63;;;6.63;;
13090;SDS011;6611;52.604;13.438;2022-10-18T15:59:58;8.60;;;6.43;;
13090;SDS011;6611;52.604;13.438;2022-10-18T16:05:10;9.07;;;7.23;;
13090;SDS011;6611;52.604;13.438;2022-10-18T16:10:15;8.40;;;6.70;;
13090;SDS011;6611;52.604;13.438;2022-10-18T16:15:18;9.27;;;7.20;;
13090;SDS011;6611;52.604;13.438;2022-10-18T16:20:21;10.27;;;8.07;;
13090;SDS011;6611;52.604;13.438;2022-10-18T16:25:24;10.90;;;8.20;;
13090;SDS011;6611;52.604;13.438;2022-10-18T16:30:27;11.20;;;9.07;;
13090;SDS011;6611;52.604;13.438;2022-10-18T16:35:32;12.07;;;9.73;;
13090;SDS011;6611;52.604;13.438;2022-10-18T16:40:34;10.53;;;8.53;;
13090;SDS011;6611;52.604;13.438;2022-10-18T16:45:37;12.97;;;9.43;;
13090;SDS011;6611;52.604;13.438;2022-10-18T16:50:39;12.33;;;10.10;;
13090;SDS011;6611;52.604;13.438;2022-10-18T16:55:41;11.67;;;9.43;;
13090;SDS011;6611;52.604;13.438;2022-10-18T17:00:44;13.20;;;9.87;;
13090;SDS011;6611;52.604;13.438;2022-10-18T17:05:46;10.20;;;8.33;;
13090;SDS011;6611;52.604;13.438;2022-10-18T17:10:48;10.53;;;8.70;;
13090;SDS011;6611;52.604;13.438;2022-10-18T17:15:53;10.37;;;7.90;;
13090;SDS011;6611;52.604;13.438;2022-10-18T17:20:54;9.93;;;8.68;;
13090;SDS011;6611;52.604;13.438;2022-10-18T17:25:58;10.23;;;8.00;;
13090;SDS011;6611;52.604;13.438;2022-10-18T17:31:01;11.90;;;9.03;;
13090;SDS011;6611;52.604;13.438;2022-10-18T17:36:05;11.43;;;8.10;;
13090;SDS011;6611;52.604;13.438;2022-10-18T17:41:07;10.43;;;7.60;;
13090;SDS011;6611;52.604;13.438;2022-10-18T17:46:11;9.80;;;7.57;;
13090;SDS011;6611;52.604;13.438;2022-10-18T17:51:14;10.30;;;7.80;;
13090;SDS011;6611;52.604;13.438;2022-10-18T17:56:17;9.73;;;6.80;;
13090;SDS011;6611;52.604;13.438;2022-10-18T18:01:21;9.40;;;7.63;;
13090;SDS011;6611;52.604;13.438;2022-10-18T18:06:24;10.83;;;7.43;;
13090;SDS011;6611;52.604;13.438;2022-10-18T18:11:29;11.27;;;7.43;;
13090;SDS011;6611;52.604;13.438;2022-10-18T18:16:33;9.23;;;7.03;;
13090;SDS011;6611;52.604;13.438;2022-10-18T18:21:35;9.43;;;7.40;;
13090;SDS011;6611;52.604;13.438;2022-10-18T18:26:38;10.20;;;8.40;;
13090;SDS011;6611;52.604;13.438;2022-10-18T18:31:41;11.67;;;9.20;;
13090;SDS011;6611;52.604;13.438;2022-10-18T18:36:43;12.00;;;8.80;;
13090;SDS011;6611;52.604;13.438;2022-10-18T18:41:46;13.07;;;9.03;;
13090;SDS011;6611;52.604;13.438;2022-10-18T18:46:49;11.40;;;8.03;;
13090;SDS011;6611;52.604;13.438;2022-10-18T18:51:50;10.30;;;7.77;;
13090;SDS011;6611;52.604;13.438;2022-10-18T18:56:52;9.13;;;7.07;;
13090;SDS011;6611;52.604;13.438;2022-10-18T19:01:55;11.00;;;7.63;;
13090;SDS011;6611;52.604;13.438;2022-10-18T19:06:59;12.10;;;6.80;;
13090;SDS011;6611;52.604;13.438;2022-10-18T19:12:01;9.60;;;6.33;;
13090;SDS011;6611;52.604;13.438;2022-10-18T19:17:04;9.80;;;5.30;;
13090;SDS011;6611;52.604;13.438;2022-10-18T19:22:06;8.23;;;5.40;;
13090;SDS011;6611;52.604;13.438;2022-10-18T19:27:10;8.47;;;5.70;;
13090;SDS011;6611;52.604;13.438;2022-10-18T19:32:13;11.13;;;5.83;;
13090;SDS011;6611;52.604;13.438;2022-10-18T19:37:16;8.83;;;5.60;;
13090;SDS011;6611;52.604;13.438;2022-10-18T19:42:17;8.03;;;5.20;;
13090;SDS011;6611;52.604;13.438;2022-10-18T19:47:22;8.43;;;5.10;;
13090;SDS011;6611;52.604;13.438;2022-10-18T19:52:23;8.73;;;4.87;;
13090;SDS011;6611;52.604;13.438;2022-10-18T19:57:27;11.13;;;4.87;;
13090;SDS011;6611;52.604;13.438;2022-10-18T20:02:30;9.57;;;5.13;;
13090;SDS011;6611;52.604;13.438;2022-10-18T20:07:32;11.93;;;5.43;;
13090;SDS011;6611;52.604;13.438;2022-10-18T20:12:33;6.93;;;4.80;;
13090;SDS011;6611;52.604;13.438;2022-10-18T20:17:36;8.50;;;4.73;;
13090;SDS011;6611;52.604;13.438;2022-10-18T20:22:38;6.13;;;4.33;;
13090;SDS011;6611;52.604;13.438;2022-10-18T20:27:39;7.07;;;4.27;;
13090;SDS011;6611;52.604;13.438;2022-10-18T20:32:42;6.20;;;4.13;;
13090;SDS011;6611;52.604;13.438;2022-10-18T20:37:44;8.30;;;4.47;;
13090;SDS011;6611;52.604;13.438;2022-10-18T20:42:45;6.73;;;4.43;;
13090;SDS011;6611;52.604;13.438;2022-10-18T20:47:48;7.83;;;4.73;;
13090;SDS011;6611;52.604;13.438;2022-10-18T20:52:50;7.93;;;4.23;;
13090;SDS011;6611;52.604;13.438;2022-10-18T20:57:51;8.10;;;4.47;;
13090;SDS011;6611;52.604;13.438;2022-10-18T21:02:57;9.80;;;4.40;;
13090;SDS011;6611;52.604;13.438;2022-10-18T21:07:58;6.37;;;4.57;;
13090;SDS011;6611;52.604;13.438;2022-10-18T21:13:00;6.97;;;4.60;;
13090;SDS011;6611;52.604;13.438;2022-10-18T21:18:03;8.33;;;4.37;;
13090;SDS011;6611;52.604;13.438;2022-10-18T21:23:04;7.30;;;4.20;;
13090;SDS011;6611;52.604;13.438;2022-10-18T21:28:06;8.17;;;4.87;;
13090;SDS011;6611;52.604;13.438;2022-10-18T21:33:09;8.90;;;4.77;;
13090;SDS011;6611;52.604;13.438;2022-10-18T21:38:10;4.60;;;3.63;;
13090;SDS011;6611;52.604;13.438;2022-10-18T21:43:12;5.27;;;3.37;;
13090;SDS011;6611;52.604;13.438;2022-10-18T21:48:15;8.60;;;3.60;;
13090;SDS011;6611;52.604;13.438;2022-10-18T21:53:16;5.97;;;3.27;;
13090;SDS011;6611;52.604;13.438;2022-10-18T21:58:18;4.73;;;3.23;;
13090;SDS011;6611;52.604;13.438;2022-10-18T22:03:21;5.80;;;3.10;;
13090;SDS011;6611;52.604;13.438;2022-10-18T22:08:23;5.77;;;2.60;;
13090;SDS011;6611;52.604;13.438;2022-10-18T22:13:25;5.10;;;2.83;;
13090;SDS011;6611;52.604;13.438;2022-10-18T22:18:29;9.57;;;2.83;;
13090;SDS011;6611;52.604;13.438;2022-10-18T22:23:31;6.20;;;2.77;;
13090;SDS011;6611;52.604;13.438;2022-10-18T22:28:35;4.83;;;2.77;;
13090;SDS011;6611;52.604;13.438;2022-10-18T22:33:39;4.47;;;2.63;;
13090;SDS011;6611;52.604;13.438;2022-10-18T22:38:40;5.27;;;2.53;;
13090;SDS011;6611;52.604;13.438;2022-10-18T22:43:42;6.30;;;2.60;;
13090;SDS011;6611;52.604;13.438;2022-10-18T22:48:45;4.20;;;2.30;;
13090;SDS011;6611;52.604;13.438;2022-10-18T22:53:47;3.70;;;2.30;;
13090;SDS011;6611;52.604;13.438;2022-10-18T22:58:49;5.73;;;2.30;;
13090;SDS011;6611;52.604;13.438;2022-10-18T23:03:52;2.93;;;2.00;;
13090;SDS011;6611;52.604;13.438;2022-10-18T23:08:56;4.63;;;2.23;;
13090;SDS011;6611;52.604;13.438;2022-10-18T23:13:59;2.13;;;1.77;;
13090;SDS011;6611;52.604;13.438;2022-10-18T23:19:04;4.63;;;1.53;;
13090;SDS011;6611;52.604;13.438;2022-10-18T23:24:05;3.80;;;1.63;;
13090;SDS011;6611;52.604;13.438;2022-10-18T23:29:07;3.07;;;1.83;;
13090;SDS011;6611;52.604;13.438;2022-10-18T23:34:10;2.30;;;1.50;;
13090;SDS011;6611;52.604;13.438;2022-10-18T23:39:12;5.27;;;1.77;;
13090;SDS011;6611;52.604;13.438;2022-10-18T23:44:13;2.57;;;1.70;;
13090;SDS011;6611;52.604;13.438;2022-10-18T23:49:16;2.13;;;1.80;;
13090;SDS011;6611;52.604;13.438;2022-10-18T23:54:17;4.83;;;1.90;;
13090;SDS011;6611;52.604;13.438;2022-10-18T23:59:19;4.73;;;1.50;;
